createdAt,value
2018-05-06T00:00:09.911Z,99761.47
2018-05-06T00:02:43.475Z,99757.61
2018-05-06T00:05:17.096Z,99760.05
2018-05-06T00:07:50.652Z,99752.75
2018-05-06T00:10:24.462Z,99753.11
2018-05-06T00:12:58.056Z,99751.11
2018-05-06T00:15:31.888Z,99751.20
2018-05-06T00:18:05.617Z,99751.38
2018-05-06T00:20:39.308Z,99749.14
2018-05-06T00:23:13.061Z,99740.80
2018-05-06T00:25:46.876Z,99745.69
2018-05-06T00:28:20.624Z,99752.68
2018-05-06T00:30:54.165Z,99738.05
2018-05-06T00:33:27.736Z,99735.56
2018-05-06T00:36:01.280Z,99734.02
2018-05-06T00:38:34.828Z,99735.94
2018-05-06T00:41:08.388Z,99736.86
2018-05-06T00:43:42.136Z,99732.86
2018-05-06T00:46:15.755Z,99729.84
2018-05-06T00:48:49.528Z,99735.59
2018-05-06T00:51:23.135Z,99736.41
2018-05-06T00:53:56.920Z,99742.48
2018-05-06T00:56:30.519Z,99739.13
2018-05-06T00:59:04.076Z,99734.14
2018-05-06T01:01:37.636Z,99737.67
2018-05-06T01:04:11.328Z,99730.16
2018-05-06T01:06:44.976Z,99725.44
2018-05-06T01:09:18.807Z,99725.22
2018-05-06T01:11:52.716Z,99727.20
2018-05-06T01:14:26.541Z,99729.95
2018-05-06T01:17:00.311Z,99728.44
2018-05-06T01:19:34.060Z,99729.76
2018-05-06T01:22:07.744Z,99731.94
2018-05-06T01:24:41.396Z,99729.67
2018-05-06T01:27:14.960Z,99730.58
2018-05-06T01:29:48.519Z,99733.80
2018-05-06T01:32:22.092Z,99730.81
2018-05-06T01:34:55.810Z,99730.81
2018-05-06T01:37:29.518Z,99737.43
2018-05-06T01:40:03.080Z,99726.58
2018-05-06T01:42:36.872Z,99735.66
2018-05-06T01:45:10.475Z,99729.20
2018-05-06T01:47:44.008Z,99728.80
2018-05-06T01:50:17.704Z,99723.80
2018-05-06T01:52:51.308Z,99727.19
2018-05-06T01:55:24.942Z,99721.73
2018-05-06T01:57:58.708Z,99716.79
2018-05-06T02:00:32.250Z,99725.52
2018-05-06T02:03:05.820Z,99722.74
2018-05-06T02:05:39.423Z,99726.17
2018-05-06T02:08:12.961Z,99728.34
2018-05-06T02:10:46.688Z,99730.31
2018-05-06T02:13:20.230Z,99734.15
2018-05-06T02:15:53.851Z,99726.02
2018-05-06T02:18:27.534Z,99736.94
2018-05-06T02:21:01.068Z,99736.13
2018-05-06T02:23:34.762Z,99734.95
2018-05-06T02:26:08.362Z,99736.70
2018-05-06T02:28:41.934Z,99730.22
2018-05-06T02:31:15.689Z,99730.06
2018-05-06T02:33:49.236Z,99731.78
2018-05-06T02:36:22.848Z,99734.86
2018-05-06T02:38:56.615Z,99729.95
2018-05-06T02:41:30.441Z,99727.00
2018-05-06T02:44:04.074Z,99729.62
2018-05-06T02:46:37.656Z,99724.31
2018-05-06T02:49:11.501Z,99717.41
2018-05-06T02:51:45.267Z,99721.23
2018-05-06T02:54:18.856Z,99718.06
2018-05-06T02:56:52.517Z,99719.52
2018-05-06T02:59:26.062Z,99711.14
2018-05-06T03:01:59.753Z,99714.27
2018-05-06T03:04:33.313Z,99711.08
2018-05-06T03:07:07.088Z,99710.48
2018-05-06T03:09:40.647Z,99706.00
2018-05-06T03:12:14.358Z,99713.56
2018-05-06T03:14:48.084Z,99712.86
2018-05-06T03:17:21.750Z,99715.98
2018-05-06T03:19:55.508Z,99717.55
2018-05-06T03:22:29.134Z,99719.06
2018-05-06T03:25:02.736Z,99722.47
2018-05-06T03:27:36.439Z,99721.73
2018-05-06T03:30:10.025Z,99716.94
2018-05-06T03:32:43.819Z,99721.44
2018-05-06T03:35:17.617Z,99723.70
2018-05-06T03:37:51.248Z,99728.14
2018-05-06T03:40:24.756Z,99723.97
2018-05-06T03:42:58.540Z,99733.48
2018-05-06T03:45:32.529Z,99729.72
2018-05-06T03:48:06.144Z,99725.44
2018-05-06T03:50:39.753Z,99723.75
2018-05-06T03:53:13.442Z,99725.31
2018-05-06T03:55:46.999Z,99719.05
2018-05-06T03:58:32.528Z,99726.30
2018-05-06T04:01:06.210Z,99716.80
2018-05-06T04:03:40.665Z,99721.28
2018-05-06T04:06:14.371Z,99727.85
2018-05-06T04:08:48.031Z,99724.11
2018-05-06T04:11:21.771Z,99727.50
2018-05-06T04:13:55.329Z,99730.42
2018-05-06T04:16:29.115Z,99737.81
2018-05-06T04:19:02.894Z,99737.71
2018-05-06T04:21:36.547Z,99743.80
2018-05-06T04:24:10.371Z,99741.33
2018-05-06T04:26:44.144Z,99741.10
2018-05-06T04:29:17.896Z,99748.19
2018-05-06T04:31:51.440Z,99746.48
2018-05-06T04:34:25.204Z,99741.66
2018-05-06T04:36:59.099Z,99739.70
2018-05-06T04:39:32.737Z,99750.39
2018-05-06T04:42:06.584Z,99748.26
2018-05-06T04:44:40.436Z,99746.20
2018-05-06T04:47:14.076Z,99747.72
2018-05-06T04:49:47.664Z,99753.22
2018-05-06T04:52:21.446Z,99749.34
2018-05-06T04:54:54.968Z,99750.42
2018-05-06T04:57:28.644Z,99747.02
2018-05-06T05:00:02.456Z,99742.19
2018-05-06T05:02:35.971Z,99750.16
2018-05-06T05:05:09.554Z,99749.51
2018-05-06T05:07:43.323Z,99754.95
2018-05-06T05:10:17.079Z,99757.06
2018-05-06T05:12:50.933Z,99757.50
2018-05-06T05:15:24.536Z,99752.87
2018-05-06T05:17:58.100Z,99755.59
2018-05-06T05:20:31.779Z,99751.28
2018-05-06T05:23:05.419Z,99750.39
2018-05-06T05:25:39.189Z,99749.25
2018-05-06T05:28:12.728Z,99749.55
2018-05-06T05:30:47.128Z,99748.50
2018-05-06T05:33:20.650Z,99743.39
2018-05-06T05:35:54.332Z,99745.30
2018-05-06T05:38:28.052Z,99750.89
2018-05-06T05:41:01.858Z,99745.52
2018-05-06T05:43:35.445Z,99745.59
2018-05-06T05:46:09.026Z,99750.69
2018-05-06T05:48:42.504Z,99754.18
2018-05-06T05:51:16.340Z,99749.09
2018-05-06T05:53:50.021Z,99746.31
2018-05-06T05:56:24.775Z,99743.54
2018-05-06T05:58:58.412Z,99750.64
2018-05-06T06:01:31.964Z,99756.75
2018-05-06T06:04:05.524Z,99757.87
2018-05-06T06:06:39.081Z,99757.48
2018-05-06T06:09:12.864Z,99757.73
2018-05-06T06:11:46.584Z,99764.65
2018-05-06T06:14:20.120Z,99750.84
2018-05-06T06:16:53.850Z,99753.23
2018-05-06T06:19:27.412Z,99749.90
2018-05-06T06:22:01.216Z,99754.05
2018-05-06T06:24:34.930Z,99751.48
2018-05-06T06:27:08.475Z,99763.36
2018-05-06T06:29:42.059Z,99757.28
2018-05-06T06:32:15.809Z,99761.51
2018-05-06T06:34:49.351Z,99765.86
2018-05-06T06:37:22.815Z,99771.20
2018-05-06T06:39:56.472Z,99771.95
2018-05-06T06:42:30.238Z,99763.93
2018-05-06T06:45:03.832Z,99762.73
2018-05-06T06:47:37.458Z,99767.05
2018-05-06T06:50:11.239Z,99764.58
2018-05-06T06:52:44.959Z,99771.83
2018-05-06T06:55:18.675Z,99769.17
2018-05-06T06:57:52.292Z,99780.81
2018-05-06T07:00:25.996Z,99773.83
2018-05-06T07:02:59.568Z,99768.20
2018-05-06T07:05:33.223Z,99766.48
2018-05-06T07:08:06.765Z,99768.78
2018-05-06T07:10:40.360Z,99768.36
2018-05-06T07:13:14.214Z,99771.98
2018-05-06T07:15:47.888Z,99781.80
2018-05-06T07:18:21.507Z,99782.02
2018-05-06T07:20:55.048Z,99782.59
2018-05-06T07:23:28.749Z,99788.54
2018-05-06T07:26:02.322Z,99780.63
2018-05-06T07:28:35.831Z,99798.66
2018-05-06T07:31:09.332Z,99797.26
2018-05-06T07:33:42.893Z,99797.84
2018-05-06T07:36:17.668Z,99789.83
2018-05-06T07:38:51.255Z,99790.97
2018-05-06T07:41:24.830Z,99787.03
2018-05-06T07:43:58.431Z,99787.95
2018-05-06T07:46:32.081Z,99790.99
2018-05-06T07:49:05.968Z,99784.02
2018-05-06T07:51:39.393Z,99793.28
2018-05-06T07:54:13.141Z,99791.13
2018-05-06T07:56:46.844Z,99792.31
2018-05-06T07:59:20.468Z,99780.77
2018-05-06T08:01:54.046Z,99779.71
2018-05-06T08:04:27.700Z,99787.41
2018-05-06T08:07:01.216Z,99789.29
2018-05-06T08:09:35.023Z,99796.98
2018-05-06T08:12:08.552Z,99794.09
2018-05-06T08:14:42.035Z,99794.39
2018-05-06T08:17:15.687Z,99795.72
2018-05-06T08:19:49.220Z,99797.67
2018-05-06T08:22:22.918Z,99803.81
2018-05-06T08:24:56.431Z,99800.66
2018-05-06T08:27:29.965Z,99799.21
2018-05-06T08:30:03.584Z,99799.75
2018-05-06T08:32:37.125Z,99801.94
2018-05-06T08:35:10.797Z,99795.70
2018-05-06T08:37:44.351Z,99791.90
2018-05-06T08:40:18.028Z,99787.72
2018-05-06T08:42:51.584Z,99789.59
2018-05-06T08:45:25.556Z,99792.59
2018-05-06T08:47:59.071Z,99796.53
2018-05-06T08:50:32.727Z,99792.22
2018-05-06T08:53:07.521Z,99799.84
2018-05-06T08:55:41.275Z,99802.05
2018-05-06T08:58:14.770Z,99801.45
2018-05-06T09:00:48.355Z,99806.77
2018-05-06T09:03:21.900Z,99805.96
2018-05-06T09:05:55.733Z,99806.46
2018-05-06T09:08:29.444Z,99811.61
2018-05-06T09:11:03.074Z,99812.83
2018-05-06T09:13:36.827Z,99820.41
2018-05-06T09:16:10.486Z,99815.11
2018-05-06T09:18:44.047Z,99805.63
2018-05-06T09:21:17.610Z,99806.25
2018-05-06T09:23:51.172Z,99796.31
2018-05-06T09:26:24.983Z,99799.16
2018-05-06T09:28:58.504Z,99798.65
2018-05-06T09:31:32.647Z,99792.58
2018-05-06T09:34:06.259Z,99791.70
2018-05-06T09:36:39.879Z,99792.16
2018-05-06T09:39:13.666Z,99794.61
2018-05-06T09:41:47.285Z,99786.30
2018-05-06T09:44:20.916Z,99785.20
2018-05-06T09:46:54.507Z,99782.52
2018-05-06T09:49:28.271Z,99772.54
2018-05-06T09:52:01.830Z,99776.74
2018-05-06T09:54:35.586Z,99781.55
2018-05-06T09:57:09.302Z,99782.53
2018-05-06T09:59:42.828Z,99773.17
2018-05-06T10:02:16.688Z,99765.64
2018-05-06T10:04:50.344Z,99767.77
2018-05-06T10:07:23.921Z,99767.55
2018-05-06T10:09:57.516Z,99773.96
2018-05-06T10:12:31.176Z,99768.84
2018-05-06T10:15:04.851Z,99771.89
2018-05-06T10:17:38.463Z,99761.95
2018-05-06T10:20:12.068Z,99757.01
2018-05-06T10:22:45.596Z,99749.41
2018-05-06T10:25:19.452Z,99754.05
2018-05-06T10:27:52.981Z,99744.65
2018-05-06T10:30:26.748Z,99743.23
2018-05-06T10:33:00.231Z,99733.84
2018-05-06T10:35:34.031Z,99729.14
2018-05-06T10:38:07.554Z,99723.50
2018-05-06T10:40:41.212Z,99722.86
2018-05-06T10:43:14.767Z,99713.95
2018-05-06T10:45:48.316Z,99708.59
2018-05-06T10:48:21.936Z,99711.95
2018-05-06T10:50:55.529Z,99707.84
2018-05-06T10:53:29.169Z,99702.88
2018-05-06T10:56:02.695Z,99698.68
2018-05-06T10:58:36.371Z,99702.20
2018-05-06T11:01:10.045Z,99701.33
2018-05-06T11:03:43.842Z,99684.76
2018-05-06T11:06:17.408Z,99691.66
2018-05-06T11:08:51.024Z,99687.99
2018-05-06T11:11:24.680Z,99689.95
2018-05-06T11:13:58.275Z,99698.42
2018-05-06T11:16:31.843Z,99682.56
2018-05-06T11:19:05.390Z,99691.25
2018-05-06T11:21:39.028Z,99675.35
2018-05-06T11:24:12.800Z,99681.83
2018-05-06T11:26:46.460Z,99680.67
2018-05-06T11:29:20.020Z,99680.98
2018-05-06T11:31:53.824Z,99668.85
2018-05-06T11:34:27.376Z,99676.13
2018-05-06T11:37:01.186Z,99670.33
2018-05-06T11:39:34.870Z,99667.59
2018-05-06T11:42:08.413Z,99672.77
2018-05-06T11:44:41.968Z,99671.98
2018-05-06T11:47:16.110Z,99670.75
2018-05-06T11:49:49.727Z,99667.42
2018-05-06T11:52:23.276Z,99669.44
2018-05-06T11:54:56.806Z,99672.66
2018-05-06T11:57:30.450Z,99671.16
2018-05-06T12:00:04.088Z,99660.39
2018-05-06T12:02:37.852Z,99652.31
2018-05-06T12:05:11.477Z,99660.64
2018-05-06T12:07:45.144Z,99649.61
2018-05-06T12:10:18.700Z,99652.22
2018-05-06T12:12:52.428Z,99647.44
2018-05-06T12:15:25.929Z,99648.54
2018-05-06T12:17:59.656Z,99644.45
2018-05-06T12:20:33.423Z,99643.87
2018-05-06T12:23:06.971Z,99632.46
2018-05-06T12:25:40.655Z,99632.53
2018-05-06T12:28:14.332Z,99625.56
2018-05-06T12:30:47.909Z,99621.80
2018-05-06T12:33:21.707Z,99622.39
2018-05-06T12:35:55.351Z,99621.76
2018-05-06T12:38:29.065Z,99620.78
2018-05-06T12:41:02.576Z,99619.02
2018-05-06T12:43:36.144Z,99602.83
2018-05-06T12:46:09.881Z,99609.27
2018-05-06T12:48:43.685Z,99604.83
2018-05-06T12:51:17.234Z,99603.44
2018-05-06T12:53:50.965Z,99605.08
2018-05-06T12:56:24.665Z,99601.05
2018-05-06T12:58:58.266Z,99594.08
2018-05-06T13:01:32.001Z,99591.89
2018-05-06T13:04:05.656Z,99588.91
2018-05-06T13:06:39.265Z,99581.16
2018-05-06T13:09:13.049Z,99584.73
2018-05-06T13:11:46.669Z,99584.53
2018-05-06T13:14:20.179Z,99579.16
2018-05-06T13:16:53.949Z,99578.77
2018-05-06T13:19:27.520Z,99575.39
2018-05-06T13:22:01.065Z,99576.18
2018-05-06T13:24:34.739Z,99572.04
2018-05-06T13:27:09.301Z,99573.80
2018-05-06T13:29:43.001Z,99571.21
2018-05-06T13:32:16.762Z,99565.05
2018-05-06T13:34:50.476Z,99561.23
2018-05-06T13:37:24.129Z,99558.87
2018-05-06T13:39:57.730Z,99551.95
2018-05-06T13:42:31.297Z,99548.57
2018-05-06T13:45:05.020Z,99554.11
2018-05-06T13:47:38.624Z,99552.74
2018-05-06T13:50:12.539Z,99553.52
2018-05-06T13:52:45.953Z,99550.17
2018-05-06T13:55:19.604Z,99545.75
2018-05-06T13:57:53.357Z,99535.05
2018-05-06T14:00:27.059Z,99546.75
2018-05-06T14:03:00.819Z,99537.61
2018-05-06T14:05:34.499Z,99538.58
2018-05-06T14:08:09.308Z,99534.56
2018-05-06T14:10:42.899Z,99534.35
2018-05-06T14:13:16.499Z,99528.17
2018-05-06T14:15:50.117Z,99511.77
2018-05-06T14:18:23.615Z,99515.59
2018-05-06T14:20:57.311Z,99516.66
2018-05-06T14:23:31.087Z,99518.52
2018-05-06T14:26:04.781Z,99518.59
2018-05-06T14:28:38.324Z,99512.53
2018-05-06T14:31:11.985Z,99511.52
2018-05-06T14:33:45.728Z,99510.08
2018-05-06T14:36:19.385Z,99506.70
2018-05-06T14:38:53.037Z,99505.34
2018-05-06T14:41:26.720Z,99499.57
2018-05-06T14:44:00.497Z,99511.33
2018-05-06T14:46:45.864Z,99499.09
2018-05-06T14:49:19.648Z,99508.64
2018-05-06T14:51:53.382Z,99499.10
2018-05-06T14:54:27.112Z,99502.65
2018-05-06T14:57:00.841Z,99490.53
2018-05-06T14:59:34.472Z,99493.01
2018-05-06T15:02:08.020Z,99501.25
2018-05-06T15:04:42.711Z,99494.95
2018-05-06T15:07:16.364Z,99496.01
2018-05-06T15:09:49.917Z,99493.00
2018-05-06T15:12:23.490Z,99494.84
2018-05-06T15:14:57.249Z,99484.91
2018-05-06T15:17:31.106Z,99501.38
2018-05-06T15:20:04.752Z,99490.13
2018-05-06T15:22:38.408Z,99482.45
2018-05-06T15:25:11.974Z,99487.14
2018-05-06T15:27:45.781Z,99492.09
2018-05-06T15:30:19.409Z,99486.73
2018-05-06T15:32:53.011Z,99485.70
2018-05-06T15:35:26.672Z,99479.42
2018-05-06T15:38:00.203Z,99473.13
2018-05-06T15:40:34.014Z,99474.44
2018-05-06T15:43:07.679Z,99470.62
2018-05-06T15:45:41.213Z,99474.00
2018-05-06T15:48:14.770Z,99461.72
2018-05-06T15:50:48.545Z,99467.78
2018-05-06T15:53:22.945Z,99462.71
2018-05-06T15:55:56.663Z,99463.14
2018-05-06T15:58:30.415Z,99471.15
2018-05-06T16:01:03.918Z,99472.73
2018-05-06T16:03:49.284Z,99468.59
2018-05-06T16:06:24.353Z,99472.77
2018-05-06T16:08:58.085Z,99459.81
2018-05-06T16:11:31.665Z,99468.53
2018-05-06T16:14:05.293Z,99466.73
2018-05-06T16:16:39.043Z,99462.51
2018-05-06T16:19:12.620Z,99454.73
2018-05-06T16:21:46.081Z,99454.14
2018-05-06T16:24:19.705Z,99451.50
2018-05-06T16:26:53.476Z,99444.87
2018-05-06T16:29:27.046Z,99448.12
2018-05-06T16:32:00.696Z,99446.85
2018-05-06T16:34:34.238Z,99448.37
2018-05-06T16:40:07.572Z,99447.91
2018-05-06T16:42:41.257Z,99446.31
2018-05-06T16:45:14.825Z,99442.77
2018-05-06T16:47:48.280Z,99445.92
2018-05-06T16:50:22.070Z,99451.84
2018-05-06T16:52:55.844Z,99443.01
2018-05-06T16:55:29.416Z,99445.77
2018-05-06T16:58:03.176Z,99442.13
2018-05-06T17:00:36.816Z,99444.89
2018-05-06T17:03:10.597Z,99446.34
2018-05-06T17:05:44.429Z,99442.45
2018-05-06T17:08:18.047Z,99443.55
2018-05-06T17:10:51.689Z,99441.31
2018-05-06T17:13:25.329Z,99433.86
2018-05-06T17:15:58.938Z,99436.02
2018-05-06T17:18:32.640Z,99430.08
2018-05-06T17:21:06.359Z,99425.08
2018-05-06T17:23:40.084Z,99436.50
2018-05-06T17:26:13.918Z,99426.36
2018-05-06T17:28:47.603Z,99428.13
2018-05-06T17:31:21.393Z,99429.80
2018-05-06T17:33:55.052Z,99429.20
2018-05-06T17:36:28.721Z,99432.48
2018-05-06T17:39:02.426Z,99433.78
2018-05-06T17:41:36.068Z,99436.30
2018-05-06T17:44:09.686Z,99436.73
2018-05-06T17:46:43.514Z,99432.25
2018-05-06T17:49:17.097Z,99432.84
2018-05-06T17:51:50.821Z,99434.67
2018-05-06T17:54:24.466Z,99441.37
2018-05-06T17:56:58.165Z,99439.16
2018-05-06T17:59:32.027Z,99442.14
2018-05-06T18:02:05.659Z,99440.72
2018-05-06T18:04:39.366Z,99442.88
2018-05-06T18:07:13.188Z,99443.19
2018-05-06T18:09:46.877Z,99444.93
2018-05-06T18:12:20.924Z,99441.93
2018-05-06T18:14:54.837Z,99442.94
2018-05-06T18:17:28.481Z,99439.69
2018-05-06T18:20:02.913Z,99440.18
2018-05-06T18:22:36.825Z,99442.70
2018-05-06T18:25:10.626Z,99444.65
2018-05-06T18:27:44.358Z,99445.42
2018-05-06T18:30:17.931Z,99449.19
2018-05-06T18:32:51.526Z,99451.89
2018-05-06T18:35:25.296Z,99446.55
2018-05-06T18:37:59.095Z,99451.14
2018-05-06T18:40:32.725Z,99456.56
2018-05-06T18:43:06.288Z,99449.96
2018-05-06T18:45:39.988Z,99457.33
2018-05-06T18:48:13.562Z,99455.47
2018-05-06T18:50:47.314Z,99458.83
2018-05-06T18:53:21.085Z,99455.78
2018-05-06T18:55:54.744Z,99460.47
2018-05-06T18:58:28.435Z,99461.66
2018-05-06T19:01:02.209Z,99462.63
2018-05-06T19:03:35.821Z,99459.58
2018-05-06T19:06:09.458Z,99457.27
2018-05-06T19:08:43.165Z,99463.22
2018-05-06T19:11:16.808Z,99458.44
2018-05-06T19:13:50.676Z,99472.28
2018-05-06T19:16:24.266Z,99474.63
2018-05-06T19:18:57.957Z,99469.26
2018-05-06T19:21:31.815Z,99473.29
2018-05-06T19:24:05.460Z,99475.95
2018-05-06T19:26:39.226Z,99478.04
2018-05-06T19:29:12.885Z,99477.93
2018-05-06T19:31:46.457Z,99481.77
2018-05-06T19:34:20.188Z,99483.48
2018-05-06T19:36:53.723Z,99492.47
2018-05-06T19:39:27.438Z,99494.62
2018-05-06T19:42:01.179Z,99491.18
2018-05-06T19:44:35.013Z,99496.05
2018-05-06T19:47:09.008Z,99497.91
2018-05-06T19:49:42.725Z,99496.43
2018-05-06T19:52:16.584Z,99499.56
2018-05-06T19:54:50.328Z,99495.06
2018-05-06T19:57:24.068Z,99501.22
2018-05-06T19:59:57.645Z,99500.02
2018-05-06T20:02:31.537Z,99497.20
2018-05-06T20:05:05.042Z,99496.66
2018-05-06T20:07:38.677Z,99491.64
2018-05-06T20:10:12.311Z,99491.59
2018-05-06T20:12:45.987Z,99497.27
2018-05-06T20:15:19.652Z,99503.56
2018-05-06T20:17:53.385Z,99502.79
2018-05-06T20:20:27.109Z,99502.89
2018-05-06T20:23:00.748Z,99503.34
2018-05-06T20:25:34.471Z,99510.58
2018-05-06T20:28:08.068Z,99511.50
2018-05-06T20:30:41.803Z,99515.04
2018-05-06T20:33:15.489Z,99515.09
2018-05-06T20:35:49.169Z,99511.44
2018-05-06T20:38:22.993Z,99511.04
2018-05-06T20:40:56.647Z,99507.68
2018-05-06T20:43:30.218Z,99507.37
2018-05-06T20:46:03.916Z,99505.45
2018-05-06T20:48:37.659Z,99506.98
2018-05-06T20:51:11.361Z,99510.88
2018-05-06T20:53:45.080Z,99511.35
2018-05-06T20:56:18.819Z,99513.81
2018-05-06T20:58:52.597Z,99522.27
2018-05-06T21:01:26.237Z,99514.34
2018-05-06T21:03:59.962Z,99514.13
2018-05-06T21:06:33.733Z,99512.82
2018-05-06T21:09:07.600Z,99514.53
2018-05-06T21:11:41.194Z,99513.39
2018-05-06T21:14:14.787Z,99524.27
2018-05-06T21:16:48.543Z,99520.72
2018-05-06T21:19:25.737Z,99525.77
2018-05-06T21:21:59.476Z,99527.27
2018-05-06T21:24:33.203Z,99520.05
2018-05-06T21:27:06.821Z,99517.99
2018-05-06T21:29:40.591Z,99522.44
2018-05-06T21:32:14.235Z,99525.19
2018-05-06T21:34:47.953Z,99524.90
2018-05-06T21:37:21.585Z,99521.45
2018-05-06T21:39:55.212Z,99522.91
2018-05-06T21:42:28.807Z,99525.66
2018-05-06T21:45:02.419Z,99523.06
2018-05-06T21:47:36.036Z,99527.33
2018-05-06T21:50:10.092Z,99525.03
2018-05-06T21:52:44.737Z,99531.60
2018-05-06T21:55:18.472Z,99534.45
2018-05-06T21:57:52.061Z,99535.18
2018-05-06T22:00:25.628Z,99534.95
2018-05-06T22:02:59.428Z,99537.58
2018-05-06T22:05:33.215Z,99536.04
2018-05-06T22:08:07.074Z,99533.73
2018-05-06T22:10:41.265Z,99533.00
2018-05-06T22:13:15.051Z,99533.30
2018-05-06T22:15:48.688Z,99539.29
2018-05-06T22:18:22.424Z,99532.63
2018-05-06T22:20:56.216Z,99536.81
2018-05-06T22:23:29.879Z,99534.34
2018-05-06T22:26:03.491Z,99532.00
2018-05-06T22:28:37.204Z,99521.87
2018-05-06T22:31:10.920Z,99517.85
2018-05-06T22:33:44.615Z,99519.83
2018-05-06T22:36:18.228Z,99524.04
2018-05-06T22:38:51.904Z,99523.84
2018-05-06T22:41:25.573Z,99529.53
2018-05-06T22:43:59.278Z,99521.02
2018-05-06T22:46:32.893Z,99525.19
2018-05-06T22:49:06.636Z,99523.72
2018-05-06T22:51:40.401Z,99524.88
2018-05-06T22:54:14.080Z,99525.71
2018-05-06T22:56:47.779Z,99525.80
2018-05-06T22:59:21.453Z,99524.44
2018-05-06T23:01:55.063Z,99522.38
2018-05-06T23:04:28.762Z,99516.59
2018-05-06T23:07:02.459Z,99511.33
2018-05-06T23:09:36.043Z,99512.16
2018-05-06T23:12:09.730Z,99516.73
2018-05-06T23:14:43.791Z,99510.22
2018-05-06T23:17:17.478Z,99516.50
2018-05-06T23:19:51.239Z,99514.38
2018-05-06T23:22:24.739Z,99508.78
2018-05-06T23:24:58.483Z,99507.95
2018-05-06T23:27:32.272Z,99513.00
2018-05-06T23:30:06.086Z,99511.06
2018-05-06T23:32:39.902Z,99507.59
2018-05-06T23:35:13.488Z,99508.88
2018-05-06T23:37:47.200Z,99506.91
2018-05-06T23:40:20.819Z,99504.25
2018-05-06T23:42:54.392Z,99500.61
2018-05-06T23:45:27.966Z,99501.53
2018-05-06T23:48:01.519Z,99497.27
2018-05-06T23:50:35.055Z,99496.70
2018-05-06T23:53:08.612Z,99502.18
2018-05-06T23:55:42.284Z,99495.95
2018-05-06T23:58:15.856Z,99500.55
